Time;durP1;ratioP1;P1;durP2;ratioP2;P2;SDS_P1;SDS_P2;PMS_P1;PMS_P2;Temp;Humidity;BMP_temperature;BMP_pressure;BME280_temperature;BME280_humidity;BME280_pressure;Samples;Min_cycle;Max_cycle;Signal;HPM_P1;HPM_P2
2021/04/30 00:01:40;;;;;;;49.97;35.00;;;6.80;95.50;;;;;;4988758;28;20037;-67
2021/04/30 00:04:05;;;;;;;51.60;35.35;;;6.80;95.60;;;;;;4989417;28;20041;-67
2021/04/30 00:06:31;;;;;;;49.60;35.28;;;6.80;95.60;;;;;;4986316;28;20179;-68
2021/04/30 00:08:57;;;;;;;48.65;33.88;;;6.80;95.50;;;;;;4990189;28;20030;-67
2021/04/30 00:11:22;;;;;;;52.03;36.25;;;6.80;95.40;;;;;;4989534;28;20049;-67
2021/04/30 00:13:48;;;;;;;45.83;34.78;;;6.80;95.40;;;;;;4971982;28;20102;-67
2021/04/30 00:16:14;;;;;;;48.63;35.15;;;6.80;95.50;;;;;;4991331;28;20026;-67
2021/04/30 00:18:39;;;;;;;54.08;36.13;;;6.80;95.60;;;;;;4970935;28;20049;-68
2021/04/30 00:21:06;;;;;;;50.28;35.58;;;6.80;95.40;;;;;;4983685;28;20031;-68
2021/04/30 00:23:33;;;;;;;57.95;37.95;;;6.80;95.50;;;;;;4985536;28;20080;-67
2021/04/30 00:26:01;;;;;;;47.50;34.40;;;6.90;95.60;;;;;;4986230;28;20038;-67
2021/04/30 00:28:27;;;;;;;56.38;36.55;;;6.80;95.50;;;;;;4970031;28;20042;-67
2021/04/30 00:30:54;;;;;;;47.67;34.60;;;6.80;95.60;;;;;;4987933;28;20557;-67
2021/04/30 00:33:21;;;;;;;48.15;35.88;;;6.80;95.50;;;;;;4988887;28;20062;-67
2021/04/30 00:35:47;;;;;;;52.00;36.13;;;6.80;95.40;;;;;;4989460;28;20053;-67
2021/04/30 00:38:13;;;;;;;48.30;35.50;;;6.80;95.50;;;;;;4988807;28;20030;-67
2021/04/30 00:40:39;;;;;;;49.10;36.00;;;6.80;95.50;;;;;;4986396;28;20102;-67
2021/04/30 00:43:05;;;;;;;48.40;34.95;;;6.80;95.60;;;;;;4970849;28;20128;-67
2021/04/30 00:45:31;;;;;;;52.45;36.30;;;6.80;95.50;;;;;;4986524;28;20105;-67
2021/04/30 00:47:57;;;;;;;46.22;34.72;;;6.80;95.50;;;;;;4988288;28;20607;-67
2021/04/30 00:50:25;;;;;;;52.78;36.55;;;6.80;95.50;;;;;;4988375;28;20045;-67
2021/04/30 00:52:51;;;;;;;47.40;35.05;;;6.80;95.50;;;;;;4987323;28;20045;-68
2021/04/30 00:55:18;;;;;;;47.40;35.08;;;6.90;95.50;;;;;;4986902;28;20485;-67
2021/04/30 00:57:54;;;;;;;49.75;36.05;;;6.80;95.40;;;;;;4989243;28;20019;-67
2021/04/30 01:00:21;;;;;;;49.88;35.20;;;6.80;95.30;;;;;;4986233;28;20073;-67
2021/04/30 01:02:47;;;;;;;50.42;35.63;;;6.80;95.20;;;;;;4975527;28;20513;-67
2021/04/30 01:05:12;;;;;;;48.55;35.05;;;6.80;95.40;;;;;;4985972;28;20092;-67
2021/04/30 01:07:38;;;;;;;46.38;34.38;;;6.80;95.30;;;;;;4990682;28;20030;-67
2021/04/30 01:10:05;;;;;;;46.60;34.03;;;6.80;95.30;;;;;;4993428;28;20372;-67
2021/04/30 01:12:30;;;;;;;49.72;36.13;;;6.80;95.40;;;;;;4976958;28;20037;-67
2021/04/30 01:14:56;;;;;;;48.30;34.72;;;6.80;95.30;;;;;;4983423;28;20030;-67
2021/04/30 01:17:22;;;;;;;49.35;35.10;;;6.80;95.20;;;;;;4975241;28;20031;-67
2021/04/30 01:19:48;;;;;;;47.78;34.83;;;6.80;95.30;;;;;;4990055;28;20438;-68
2021/04/30 01:22:31;;;;;;;51.53;36.47;;;6.90;95.30;;;;;;4973169;28;20038;-68
2021/04/30 01:24:57;;;;;;;48.60;34.63;;;6.80;95.30;;;;;;4990387;28;20046;-67
2021/04/30 01:27:22;;;;;;;49.83;35.45;;;6.90;95.40;;;;;;4974072;28;20034;-67
2021/04/30 01:29:48;;;;;;;46.50;35.10;;;6.80;95.30;;;;;;4988896;28;20109;-67
2021/04/30 01:32:14;;;;;;;50.15;35.97;;;6.80;95.30;;;;;;4992226;28;20518;-67
2021/04/30 01:34:39;;;;;;;46.85;34.13;;;6.80;95.30;;;;;;4993660;28;20022;-67
2021/04/30 01:37:05;;;;;;;48.28;34.67;;;6.80;95.40;;;;;;4994712;28;20037;-67
2021/04/30 01:39:31;;;;;;;48.03;35.00;;;6.80;95.30;;;;;;4996779;28;20030;-67
2021/04/30 01:41:56;;;;;;;51.03;36.78;;;6.90;95.30;;;;;;4993966;28;20022;-68
2021/04/30 01:44:22;;;;;;;45.13;34.08;;;6.90;95.30;;;;;;4994135;28;20041;-67
2021/04/30 01:46:47;;;;;;;47.25;35.55;;;6.90;95.20;;;;;;4996913;28;20046;-67
2021/04/30 01:49:13;;;;;;;46.17;34.33;;;6.90;95.10;;;;;;4995578;28;20350;-67
2021/04/30 01:51:39;;;;;;;48.58;35.30;;;6.90;95.00;;;;;;4991355;28;20055;-67
2021/04/30 01:54:05;;;;;;;45.88;33.92;;;6.90;95.10;;;;;;4980108;28;20043;-67
2021/04/30 01:56:33;;;;;;;47.05;34.45;;;6.90;95.00;;;;;;4991661;28;20109;-67
2021/04/30 01:58:58;;;;;;;47.90;35.33;;;6.90;95.00;;;;;;4996227;28;20530;-67
2021/04/30 02:01:24;;;;;;;48.10;35.08;;;6.90;95.00;;;;;;4991900;28;20061;-67
2021/04/30 02:03:50;;;;;;;50.80;35.38;;;7.00;94.90;;;;;;4976605;28;20031;-68
2021/04/30 02:06:16;;;;;;;52.85;34.38;;;6.90;94.90;;;;;;4995625;28;20049;-67
2021/04/30 02:08:41;;;;;;;48.67;34.85;;;6.90;94.80;;;;;;4995967;28;20636;-67
2021/04/30 02:11:07;;;;;;;50.30;36.35;;;6.90;94.90;;;;;;4991100;28;20122;-68
2021/04/30 02:13:33;;;;;;;45.65;35.53;;;6.90;95.00;;;;;;4990990;28;20064;-68
2021/04/30 02:15:59;;;;;;;45.85;33.72;;;7.00;94.90;;;;;;4995856;28;20490;-67
2021/04/30 02:18:25;;;;;;;45.65;33.72;;;7.00;95.00;;;;;;4994325;28;20053;-67
2021/04/30 02:20:51;;;;;;;52.35;34.80;;;7.00;94.90;;;;;;4991156;28;20037;-66
2021/04/30 02:23:18;;;;;;;45.78;34.78;;;7.00;94.80;;;;;;4991137;28;20462;-67
2021/04/30 02:25:44;;;;;;;45.15;34.15;;;6.90;94.90;;;;;;4987006;28;20058;-67
2021/04/30 02:28:10;;;;;;;48.95;35.72;;;7.00;95.00;;;;;;4993304;28;20552;-68
2021/04/30 02:30:38;;;;;;;46.47;33.47;;;7.00;95.00;;;;;;4991267;28;20442;-67
2021/04/30 02:33:05;;;;;;;47.58;35.67;;;7.00;95.00;;;;;;4975409;28;20030;-67
2021/04/30 02:35:36;;;;;;;48.70;34.58;;;7.00;94.90;;;;;;4995914;28;20029;-67
2021/04/30 02:38:05;;;;;;;47.85;36.85;;;7.00;94.90;;;;;;4992240;28;20035;-67
2021/04/30 02:40:32;;;;;;;48.00;35.38;;;7.00;94.80;;;;;;4991624;28;20109;-67
2021/04/30 02:43:06;;;;;;;54.47;38.03;;;7.00;94.80;;;;;;4993468;28;20041;-67
2021/04/30 02:45:32;;;;;;;48.67;35.45;;;7.00;95.00;;;;;;4992476;28;20022;-67
2021/04/30 02:48:00;;;;;;;45.70;34.70;;;7.00;94.90;;;;;;4990739;28;20041;-67
2021/04/30 02:50:29;;;;;;;49.42;35.08;;;7.00;94.90;;;;;;4984971;28;20053;-67
2021/04/30 02:52:55;;;;;;;47.13;35.97;;;7.00;94.90;;;;;;4985805;28;20391;-67
2021/04/30 02:55:23;;;;;;;49.50;35.05;;;7.00;94.80;;;;;;4993021;28;20037;-67
2021/04/30 02:57:52;;;;;;;52.53;36.50;;;7.00;94.80;;;;;;4993024;28;20033;-67
2021/04/30 03:00:19;;;;;;;51.80;35.03;;;7.00;94.90;;;;;;4994161;28;20026;-67
2021/04/30 03:02:45;;;;;;;50.30;35.95;;;7.10;94.90;;;;;;4995034;28;20099;-67
2021/04/30 03:05:11;;;;;;;51.13;36.25;;;7.00;94.90;;;;;;4988784;28;20034;-67
2021/04/30 03:07:36;;;;;;;50.70;34.53;;;7.00;94.70;;;;;;4989327;28;20041;-67
2021/04/30 03:10:04;;;;;;;48.72;33.85;;;7.00;94.80;;;;;;4992595;28;20511;-67
2021/04/30 03:12:29;;;;;;;51.58;35.70;;;7.00;94.60;;;;;;4995535;28;20479;-68
2021/04/30 03:14:55;;;;;;;47.60;34.35;;;7.10;94.60;;;;;;4983582;28;20027;-67
2021/04/30 03:17:20;;;;;;;47.85;34.47;;;7.00;94.50;;;;;;4988078;28;20038;-67
2021/04/30 03:19:46;;;;;;;45.92;33.65;;;7.00;94.50;;;;;;4972489;28;20030;-68
2021/04/30 03:22:12;;;;;;;46.90;34.45;;;7.00;94.60;;;;;;4980128;28;20058;-67
2021/04/30 03:24:37;;;;;;;44.47;34.60;;;7.00;94.60;;;;;;4987700;28;20022;-67
2021/04/30 03:27:03;;;;;;;44.97;34.60;;;7.00;94.50;;;;;;4991165;28;20038;-66
2021/04/30 03:29:29;;;;;;;49.13;34.13;;;7.00;94.50;;;;;;4971714;28;20029;-67
2021/04/30 03:31:54;;;;;;;45.55;32.90;;;7.00;94.50;;;;;;4987734;28;20026;-67
2021/04/30 03:34:20;;;;;;;49.13;35.30;;;7.00;94.50;;;;;;4995690;28;20030;-67
2021/04/30 03:36:46;;;;;;;47.83;35.03;;;7.00;94.60;;;;;;4995087;28;20061;-67
2021/04/30 03:39:12;;;;;;;50.97;34.65;;;7.00;94.60;;;;;;4994563;28;20045;-67
2021/04/30 03:41:38;;;;;;;45.55;34.70;;;7.00;94.70;;;;;;4995322;28;20082;-67
2021/04/30 03:44:03;;;;;;;46.22;35.33;;;7.00;94.70;;;;;;4994431;28;20030;-67
2021/04/30 03:46:29;;;;;;;54.60;36.88;;;7.00;94.80;;;;;;4991179;28;20065;-68
2021/04/30 03:48:55;;;;;;;48.30;33.90;;;7.00;94.80;;;;;;4989434;28;20647;-67
2021/04/30 03:51:20;;;;;;;48.58;35.17;;;7.00;94.60;;;;;;4991859;28;20398;-67
2021/04/30 03:53:46;;;;;;;50.78;35.63;;;7.00;94.60;;;;;;4993455;28;20042;-67
2021/04/30 03:56:12;;;;;;;48.67;34.95;;;7.00;94.70;;;;;;4989680;28;20057;-67
2021/04/30 03:58:38;;;;;;;45.85;34.65;;;7.00;94.70;;;;;;4994489;28;20034;-67
2021/04/30 04:01:05;;;;;;;42.70;32.20;;;7.00;94.50;;;;;;4992546;28;20120;-67
2021/04/30 04:03:31;;;;;;;47.35;34.60;;;7.00;94.40;;;;;;4982846;28;20034;-67
2021/04/30 04:05:57;;;;;;;45.55;34.45;;;7.00;94.50;;;;;;4991834;28;20640;-67
2021/04/30 04:08:22;;;;;;;45.95;32.25;;;7.00;94.40;;;;;;4978985;28;20126;-68
2021/04/30 04:10:48;;;;;;;45.65;34.60;;;7.00;94.50;;;;;;4988227;28;20397;-67
2021/04/30 04:13:18;;;;;;;44.88;35.50;;;7.10;94.60;;;;;;4994047;28;20101;-68
2021/04/30 04:15:45;;;;;;;44.15;32.55;;;7.10;94.60;;;;;;4976052;28;20077;-67
2021/04/30 04:18:11;;;;;;;44.08;31.13;;;7.10;94.60;;;;;;4993731;28;20030;-67
2021/04/30 04:20:37;;;;;;;41.05;31.65;;;7.00;94.40;;;;;;4976234;28;20038;-67
2021/04/30 04:23:03;;;;;;;42.40;30.30;;;7.00;94.20;;;;;;4991554;28;20026;-67
2021/04/30 04:25:29;;;;;;;39.85;30.23;;;7.00;94.20;;;;;;4993136;28;20470;-68
2021/04/30 04:27:55;;;;;;;39.38;31.65;;;7.00;94.10;;;;;;4994190;28;20026;-67
2021/04/30 04:30:22;;;;;;;43.28;33.15;;;7.00;94.10;;;;;;4988447;28;20027;-67
2021/04/30 04:32:47;;;;;;;43.75;31.58;;;7.10;94.20;;;;;;4979736;28;20122;-68
2021/04/30 04:35:13;;;;;;;40.50;29.70;;;7.10;94.00;;;;;;4982668;28;20050;-66
2021/04/30 04:37:39;;;;;;;36.25;29.25;;;7.00;93.80;;;;;;4978253;28;20038;-67
2021/04/30 04:40:05;;;;;;;34.47;28.00;;;7.00;93.60;;;;;;4987570;28;20030;-67
2021/04/30 04:42:31;;;;;;;37.25;28.35;;;7.00;93.70;;;;;;4981744;28;20257;-67
2021/04/30 04:44:56;;;;;;;40.47;30.08;;;6.90;93.50;;;;;;4985074;28;20480;-67
2021/04/30 04:47:22;;;;;;;42.00;30.40;;;6.90;93.70;;;;;;4990522;28;20114;-68
2021/04/30 04:49:48;;;;;;;36.65;29.90;;;6.80;93.80;;;;;;4993182;28;20042;-67
2021/04/30 04:52:13;;;;;;;43.50;31.45;;;6.70;93.90;;;;;;4983154;28;20038;-67
2021/04/30 04:54:39;;;;;;;39.88;30.27;;;6.70;94.10;;;;;;4979086;28;20072;-67
2021/04/30 04:57:05;;;;;;;39.28;30.85;;;6.70;94.20;;;;;;4993151;28;20026;-67
2021/04/30 04:59:30;;;;;;;40.03;31.20;;;6.70;94.10;;;;;;4994660;28;20031;-67
2021/04/30 05:01:56;;;;;;;44.42;32.03;;;6.80;94.10;;;;;;4991614;28;20027;-67
2021/04/30 05:04:21;;;;;;;39.50;30.67;;;6.90;94.20;;;;;;4976381;28;20037;-66
2021/04/30 05:06:47;;;;;;;37.80;30.88;;;6.90;94.10;;;;;;4984920;28;20074;-68
2021/04/30 05:09:13;;;;;;;40.97;30.42;;;6.90;94.00;;;;;;4986313;28;20074;-67
2021/04/30 05:11:38;;;;;;;36.38;29.20;;;7.00;93.70;;;;;;4981299;28;20423;-68
2021/04/30 05:14:04;;;;;;;38.92;29.77;;;7.10;93.70;;;;;;4991982;28;20289;-67
2021/04/30 05:16:30;;;;;;;36.97;29.00;;;7.10;93.50;;;;;;4998298;28;20026;-67
2021/04/30 05:18:55;;;;;;;34.40;28.20;;;7.10;93.40;;;;;;4988122;28;20321;-67
2021/04/30 05:21:21;;;;;;;34.53;27.98;;;7.10;93.10;;;;;;4981228;28;20461;-66
2021/04/30 05:23:47;;;;;;;35.15;27.50;;;7.20;93.10;;;;;;4988468;28;20049;-67
2021/04/30 05:26:12;;;;;;;36.60;28.15;;;7.30;93.10;;;;;;4989361;28;20089;-67
2021/04/30 05:28:38;;;;;;;33.33;27.27;;;7.30;92.90;;;;;;4986489;28;20033;-67
2021/04/30 05:31:04;;;;;;;40.97;27.50;;;7.30;92.90;;;;;;4979611;28;20038;-68
2021/04/30 05:33:29;;;;;;;36.35;27.52;;;7.40;92.80;;;;;;4995896;28;20035;-67
2021/04/30 05:35:55;;;;;;;36.10;27.95;;;7.40;92.50;;;;;;4994029;28;20110;-67
2021/04/30 05:38:22;;;;;;;30.13;25.05;;;7.50;92.40;;;;;;4978096;28;20300;-67
2021/04/30 05:40:48;;;;;;;32.88;26.30;;;7.30;92.00;;;;;;4990100;28;20029;-67
2021/04/30 05:43:13;;;;;;;35.78;27.25;;;7.50;92.20;;;;;;4996753;28;20026;-67
2021/04/30 05:45:40;;;;;;;31.60;25.45;;;7.60;92.60;;;;;;4997180;28;20038;-67
2021/04/30 05:48:07;;;;;;;30.50;24.55;;;7.50;91.70;;;;;;4997412;28;20109;-68
2021/04/30 05:50:34;;;;;;;32.80;25.77;;;7.70;91.80;;;;;;4979153;28;20030;-68
2021/04/30 05:53:00;;;;;;;28.25;23.73;;;7.80;91.60;;;;;;4996662;28;20116;-67
2021/04/30 05:55:26;;;;;;;30.50;25.23;;;7.90;91.30;;;;;;4987970;28;20529;-67
2021/04/30 05:57:52;;;;;;;30.23;23.30;;;8.10;92.10;;;;;;4978268;28;20114;-66
2021/04/30 06:00:18;;;;;;;33.92;22.38;;;8.10;91.30;;;;;;4996105;28;20033;-68
2021/04/30 06:02:43;;;;;;;27.65;21.35;;;8.10;91.00;;;;;;4992216;28;20031;-67
2021/04/30 06:05:09;;;;;;;26.65;20.75;;;8.20;90.70;;;;;;4986787;28;20023;-68
2021/04/30 06:07:35;;;;;;;25.45;20.42;;;8.30;90.30;;;;;;4991500;28;20038;-68
2021/04/30 06:10:02;;;;;;;24.63;20.48;;;8.20;90.10;;;;;;4994424;28;20023;-67
2021/04/30 06:12:29;;;;;;;23.48;19.25;;;8.30;89.90;;;;;;4974356;28;20098;-67
2021/04/30 06:14:54;;;;;;;21.88;17.92;;;8.20;89.70;;;;;;4983461;28;20015;-67
2021/04/30 06:17:20;;;;;;;22.10;18.42;;;8.30;89.50;;;;;;4992582;28;20030;-67
2021/04/30 06:19:46;;;;;;;23.20;17.88;;;8.30;89.40;;;;;;4993098;28;20034;-68
2021/04/30 06:22:13;;;;;;;20.50;17.25;;;8.40;89.30;;;;;;4994974;28;20029;-67
2021/04/30 06:24:39;;;;;;;24.20;18.67;;;8.40;89.60;;;;;;4990186;28;20030;-67
2021/04/30 06:27:04;;;;;;;26.10;18.40;;;8.30;89.00;;;;;;4980096;28;20038;-68
2021/04/30 06:29:30;;;;;;;24.30;19.25;;;8.50;89.40;;;;;;4980540;28;20035;-68
2021/04/30 06:31:56;;;;;;;21.25;16.25;;;8.60;89.40;;;;;;4989278;28;20090;-68
2021/04/30 06:34:25;;;;;;;20.67;16.15;;;8.50;87.70;;;;;;4992529;28;20069;-67
2021/04/30 06:36:53;;;;;;;22.00;16.90;;;8.50;87.70;;;;;;4994226;28;20019;-67
2021/04/30 06:39:19;;;;;;;22.40;16.63;;;8.60;87.80;;;;;;4994098;28;20034;-68
2021/04/30 06:41:44;;;;;;;19.15;16.75;;;8.50;87.10;;;;;;4983260;28;20288;-68
2021/04/30 06:44:10;;;;;;;19.17;16.08;;;8.50;87.40;;;;;;4989761;28;20026;-68
2021/04/30 06:46:35;;;;;;;18.85;16.25;;;8.50;87.30;;;;;;4983965;28;20034;-67
2021/04/30 06:49:01;;;;;;;20.83;16.65;;;8.60;87.70;;;;;;4976508;28;20031;-68
2021/04/30 06:51:26;;;;;;;21.30;16.35;;;8.80;88.60;;;;;;4990416;28;20782;-68
2021/04/30 06:53:53;;;;;;;20.55;15.60;;;8.80;88.30;;;;;;4978224;28;20031;-67
2021/04/30 06:56:18;;;;;;;20.40;16.80;;;8.90;87.50;;;;;;4988430;28;20471;-67
2021/04/30 06:58:44;;;;;;;21.20;16.15;;;8.90;87.90;;;;;;4969471;28;20085;-68
2021/04/30 07:01:10;;;;;;;21.67;16.63;;;8.60;86.80;;;;;;4970409;28;20030;-68
2021/04/30 07:03:37;;;;;;;21.23;15.40;;;8.70;88.00;;;;;;4990677;28;20121;-69
2021/04/30 07:06:03;;;;;;;22.95;16.45;;;8.60;87.10;;;;;;4980330;28;20031;-67
2021/04/30 07:08:29;;;;;;;19.90;15.43;;;8.80;88.20;;;;;;4991639;28;20135;-68
2021/04/30 07:10:54;;;;;;;19.42;14.43;;;8.80;87.70;;;;;;4983796;28;20510;-68
2021/04/30 07:13:20;;;;;;;18.05;14.65;;;8.80;86.50;;;;;;4988649;28;20030;-68
2021/04/30 07:15:46;;;;;;;18.20;14.25;;;8.80;86.70;;;;;;4996102;28;20447;-67
2021/04/30 07:18:11;;;;;;;17.05;13.20;;;9.10;86.70;;;;;;4974813;28;20037;-68
2021/04/30 07:20:37;;;;;;;15.73;11.98;;;9.30;86.10;;;;;;4976770;28;20034;-68
2021/04/30 07:23:03;;;;;;;17.63;13.80;;;9.20;83.70;;;;;;4982005;28;20122;-68
2021/04/30 07:25:30;;;;;;;14.80;11.32;;;9.30;84.50;;;;;;4984600;28;20457;-68
2021/04/30 07:27:57;;;;;;;14.55;11.60;;;9.60;83.90;;;;;;4987783;28;20062;-68
2021/04/30 07:30:22;;;;;;;13.93;11.60;;;9.70;82.20;;;;;;4977304;28;20450;-68
2021/04/30 07:32:48;;;;;;;13.55;10.95;;;9.60;81.70;;;;;;4979696;28;20062;-68
2021/04/30 07:35:15;;;;;;;15.40;12.90;;;9.60;81.70;;;;;;4978722;28;20407;-69
2021/04/30 07:37:40;;;;;;;16.60;13.75;;;9.60;83.00;;;;;;4987645;28;20027;-68
2021/04/30 07:40:10;;;;;;;16.27;13.70;;;9.90;84.20;;;;;;4993970;28;20368;-67
2021/04/30 07:42:36;;;;;;;19.02;14.05;;;10.10;83.50;;;;;;4985513;28;20038;-68
2021/04/30 07:45:03;;;;;;;17.70;13.60;;;10.20;83.70;;;;;;4992817;28;20033;-68
2021/04/30 07:47:30;;;;;;;18.85;12.40;;;10.20;81.70;;;;;;4986750;28;20252;-68
2021/04/30 07:49:55;;;;;;;15.25;12.63;;;10.30;82.00;;;;;;4974472;28;20031;-67
2021/04/30 07:52:21;;;;;;;14.85;11.15;;;10.70;83.70;;;;;;4967493;28;20026;-68
2021/04/30 07:54:47;;;;;;;13.23;10.43;;;10.60;81.10;;;;;;4984446;28;20181;-68
2021/04/30 07:57:13;;;;;;;14.68;10.88;;;10.30;79.20;;;;;;4980378;28;20447;-68
2021/04/30 07:59:38;;;;;;;14.38;11.80;;;10.40;80.30;;;;;;4991645;28;20026;-68
2021/04/30 08:02:04;;;;;;;14.20;12.60;;;10.40;80.40;;;;;;4990030;28;20030;-68
2021/04/30 08:04:30;;;;;;;14.43;12.02;;;10.40;81.10;;;;;;4984153;28;20057;-67
2021/04/30 08:06:56;;;;;;;13.65;10.82;;;10.30;79.90;;;;;;4993418;28;20116;-67
2021/04/30 08:09:22;;;;;;;15.38;11.82;;;10.10;78.60;;;;;;4992624;28;20022;-67
2021/04/30 08:11:47;;;;;;;14.45;11.32;;;10.10;78.50;;;;;;4975218;28;20033;-68
2021/04/30 08:14:13;;;;;;;13.52;11.80;;;10.30;79.50;;;;;;4981071;28;20026;-68
2021/04/30 08:16:39;;;;;;;15.57;12.10;;;10.40;79.90;;;;;;4991910;28;20073;-68
2021/04/30 08:19:06;;;;;;;18.15;12.48;;;10.40;79.20;;;;;;4972137;28;20093;-68
2021/04/30 08:21:32;;;;;;;15.07;12.48;;;10.60;80.90;;;;;;4984359;28;20577;-67
2021/04/30 08:23:58;;;;;;;14.90;11.20;;;10.60;79.80;;;;;;4973761;28;20045;-67
2021/04/30 08:26:23;;;;;;;15.02;11.18;;;10.40;79.40;;;;;;4992242;28;20030;-68
2021/04/30 08:28:50;;;;;;;13.70;11.57;;;10.60;77.90;;;;;;4980517;28;20037;-68
2021/04/30 08:31:16;;;;;;;14.88;11.93;;;10.60;79.70;;;;;;4972050;28;20050;-68
2021/04/30 08:33:42;;;;;;;14.73;11.65;;;11.00;79.60;;;;;;4973235;28;20030;-69
2021/04/30 08:36:07;;;;;;;13.30;11.15;;;10.90;77.30;;;;;;4988471;28;20041;-67
2021/04/30 08:38:33;;;;;;;12.27;10.60;;;11.00;79.40;;;;;;4973416;28;20446;-68
2021/04/30 08:40:59;;;;;;;11.43;9.40;;;11.40;80.20;;;;;;4985883;28;20039;-68
2021/04/30 08:43:25;;;;;;;12.30;9.82;;;11.10;75.20;;;;;;4968543;28;20026;-68
2021/04/30 08:45:54;;;;;;;13.02;9.95;;;10.80;75.30;;;;;;4980393;28;20471;-69
2021/04/30 08:48:20;;;;;;;13.25;10.32;;;10.60;76.30;;;;;;4978772;28;20058;-66
2021/04/30 08:50:47;;;;;;;13.27;11.05;;;10.90;77.20;;;;;;4981953;28;20113;-66
2021/04/30 08:53:13;;;;;;;13.27;11.02;;;11.10;77.90;;;;;;4971815;28;20035;-68
2021/04/30 08:55:39;;;;;;;14.20;10.40;;;11.10;77.20;;;;;;4978179;28;20503;-68
2021/04/30 08:58:08;;;;;;;14.57;9.98;;;11.00;76.40;;;;;;4980109;28;20039;-67
2021/04/30 09:00:33;;;;;;;13.77;10.60;;;11.10;78.10;;;;;;4963625;28;20526;-67
2021/04/30 09:02:59;;;;;;;13.48;10.43;;;11.10;76.80;;;;;;4984304;28;20042;-68
2021/04/30 09:05:27;;;;;;;12.18;10.18;;;11.50;77.20;;;;;;4987762;28;20035;-69
2021/04/30 09:07:58;;;;;;;13.98;11.68;;;11.60;77.80;;;;;;4989694;28;20655;-68
2021/04/30 09:10:26;;;;;;;15.48;11.27;;;11.50;77.90;;;;;;4992729;28;20113;-68
2021/04/30 09:13:11;;;;;;;15.25;10.63;;;11.70;76.60;;;;;;4978549;28;20037;-68
2021/04/30 09:15:38;;;;;;;13.77;11.02;;;12.00;74.80;;;;;;4985493;28;20054;-68
2021/04/30 09:18:14;;;;;;;12.05;9.30;;;11.90;73.70;;;;;;4987083;28;20043;-68
2021/04/30 09:20:40;;;;;;;13.27;10.10;;;11.80;72.90;;;;;;4991071;28;20093;-68
2021/04/30 09:23:38;;;;;;;12.18;9.57;;;11.80;73.70;;;;;;4985684;28;20038;-69
2021/04/30 09:26:22;;;;;;;13.15;9.70;;;12.00;71.90;;;;;;4984658;28;20034;-68
2021/04/30 09:29:05;;;;;;;12.43;9.93;;;11.90;70.50;;;;;;4985529;28;20073;-68
2021/04/30 09:31:42;;;;;;;11.73;9.43;;;12.10;71.70;;;;;;4975175;28;20038;-68
2021/04/30 09:34:23;;;;;;;13.80;10.40;;;11.90;71.20;;;;;;4978023;28;20031;-68
2021/04/30 09:37:11;;;;;;;12.65;10.20;;;12.20;74.50;;;;;;4977709;28;20101;-68
2021/04/30 09:40:01;;;;;;;12.45;10.70;;;12.20;73.70;;;;;;4970128;28;20037;-68
2021/04/30 09:42:29;;;;;;;13.30;10.77;;;12.10;73.30;;;;;;4989181;28;20065;-68
2021/04/30 09:45:02;;;;;;;15.38;11.13;;;12.10;72.40;;;;;;4987654;28;20027;-69
2021/04/30 09:47:29;;;;;;;14.40;10.95;;;12.00;71.60;;;;;;4984598;28;20543;-69
2021/04/30 09:49:59;;;;;;;16.00;11.82;;;11.80;73.50;;;;;;4979706;28;20341;-68
2021/04/30 09:52:26;;;;;;;11.80;10.27;;;11.70;72.30;;;;;;4987447;28;20054;-68
2021/04/30 09:54:53;;;;;;;13.25;10.27;;;11.70;71.90;;;;;;4978072;28;20049;-68
2021/04/30 09:57:24;;;;;;;14.88;10.80;;;11.50;72.00;;;;;;4991475;28;20035;-68
2021/04/30 10:00:10;;;;;;;15.82;10.68;;;11.70;73.10;;;;;;4983534;28;20169;-68
2021/04/30 10:02:37;;;;;;;14.15;9.93;;;11.60;71.50;;;;;;4968261;28;20611;-67
2021/04/30 10:05:18;;;;;;;14.30;9.98;;;11.50;69.50;;;;;;4990376;28;20246;-68
2021/04/30 10:07:44;;;;;;;12.60;10.80;;;11.30;71.20;;;;;;4989650;28;20026;-68
2021/04/30 10:10:10;;;;;;;15.55;10.80;;;11.50;72.40;;;;;;4979356;28;20652;-68
2021/04/30 10:12:43;;;;;;;12.25;10.18;;;11.50;71.60;;;;;;4989019;28;20046;-68
2021/04/30 10:15:20;;;;;;;14.60;10.65;;;11.70;71.00;;;;;;4994027;28;20031;-69
2021/04/30 10:17:47;;;;;;;14.48;11.10;;;12.00;70.60;;;;;;4974364;28;20031;-68
2021/04/30 10:20:15;;;;;;;13.40;10.32;;;12.10;72.90;;;;;;4989722;28;20030;-69
2021/04/30 10:22:44;;;;;;;12.40;10.07;;;12.40;71.50;;;;;;4964167;28;20380;-68
2021/04/30 10:25:20;;;;;;;10.90;9.23;;;12.40;69.60;;;;;;4974630;28;20034;-69
2021/04/30 10:27:47;;;;;;;15.65;10.30;;;12.30;70.00;;;;;;4983623;28;20039;-69
2021/04/30 10:30:23;;;;;;;15.57;11.30;;;12.10;70.40;;;;;;4986801;28;20049;-68
2021/04/30 10:33:15;;;;;;;14.80;10.88;;;12.20;73.00;;;;;;4987149;28;20027;-68
2021/04/30 10:36:01;;;;;;;15.15;11.13;;;12.20;71.50;;;;;;4991037;28;20091;-68
2021/04/30 10:38:30;;;;;;;14.63;10.60;;;12.50;72.50;;;;;;4975107;28;20035;-68
2021/04/30 10:41:05;;;;;;;14.30;10.48;;;12.70;69.40;;;;;;4978509;28;20025;-68
2021/04/30 10:43:32;;;;;;;13.55;11.65;;;12.70;68.50;;;;;;4968405;28;20525;-68
2021/04/30 10:46:13;;;;;;;13.73;10.63;;;12.60;68.70;;;;;;4983185;28;20039;-69
2021/04/30 10:49:07;;;;;;;13.30;10.48;;;12.60;70.30;;;;;;4978622;28;20035;-68
2021/04/30 10:51:37;;;;;;;12.65;10.48;;;12.30;71.30;;;;;;4985814;28;20037;-68
2021/04/30 10:54:26;;;;;;;13.90;11.17;;;11.90;71.70;;;;;;4978708;28;20114;-68
2021/04/30 10:57:00;;;;;;;13.02;10.35;;;11.70;72.00;;;;;;4974501;28;20526;-67
2021/04/30 10:59:45;;;;;;;13.77;10.73;;;11.70;73.30;;;;;;4970383;28;20061;-67
2021/04/30 11:02:17;;;;;;;13.98;11.20;;;11.70;73.80;;;;;;4992359;28;20023;-68
2021/04/30 11:05:04;;;;;;;15.18;11.05;;;11.80;73.30;;;;;;4988766;28;20030;-68
2021/04/30 11:07:33;;;;;;;15.23;11.82;;;11.70;73.50;;;;;;4987193;28;20030;-68
2021/04/30 11:09:58;;;;;;;13.88;11.73;;;11.90;72.60;;;;;;4974231;28;20039;-68
2021/04/30 11:12:26;;;;;;;12.63;11.15;;;11.90;71.40;;;;;;4984530;28;20046;-68
2021/04/30 11:15:08;;;;;;;13.55;12.00;;;11.90;72.00;;;;;;4976473;28;20061;-68
2021/04/30 11:17:57;;;;;;;13.07;11.32;;;12.10;73.50;;;;;;4990116;28;20034;-69
2021/04/30 11:20:26;;;;;;;11.85;9.25;;;12.10;70.50;;;;;;4964524;28;20509;-69
2021/04/30 11:23:28;;;;;;;11.88;9.38;;;12.10;69.80;;;;;;4990169;28;20042;-69
2021/04/30 11:28:30;;;;;;;12.98;7.72;;;12.30;69.20;;;;;;4980363;28;20030;-68
2021/04/30 11:31:24;;;;;;;9.75;8.55;;;12.40;66.00;;;;;;4989971;28;20953;-68
2021/04/30 11:34:12;;;;;;;10.35;7.38;;;12.40;68.10;;;;;;4984622;28;20033;-67
2021/04/30 11:36:42;;;;;;;8.63;6.72;;;12.40;66.50;;;;;;4983322;28;20416;-67
2021/04/30 11:39:28;;;;;;;11.05;7.03;;;12.70;65.00;;;;;;4981773;28;20426;-68
2021/04/30 11:42:13;;;;;;;8.07;6.70;;;12.80;65.30;;;;;;4992245;28;20034;-68
2021/04/30 11:44:40;;;;;;;9.85;7.20;;;13.20;64.30;;;;;;4992517;28;20105;-69
2021/04/30 11:47:06;;;;;;;9.00;6.07;;;13.10;64.60;;;;;;4977791;28;20038;-68
2021/04/30 11:49:36;;;;;;;8.20;6.22;;;13.30;64.50;;;;;;4986428;28;20113;-68
2021/04/30 11:52:04;;;;;;;7.63;5.95;;;13.40;62.80;;;;;;4990302;28;20077;-68
2021/04/30 11:54:35;;;;;;;8.38;6.25;;;13.30;62.20;;;;;;4992411;28;20121;-68
2021/04/30 11:57:08;;;;;;;8.27;6.05;;;13.00;63.10;;;;;;4989083;28;20506;-68
2021/04/30 11:59:40;;;;;;;7.00;5.75;;;12.60;61.40;;;;;;4973172;28;20085;-68
2021/04/30 12:02:12;;;;;;;7.28;5.50;;;12.70;65.00;;;;;;4958363;28;20034;-68
2021/04/30 12:04:43;;;;;;;6.53;5.47;;;12.90;63.60;;;;;;4985389;28;20034;-69
2021/04/30 12:07:09;;;;;;;;;;;12.80;62.30;;;;;;4985975;28;20637;-70
2021/04/30 12:09:35;;;;;;;7.93;5.15;;;12.50;62.50;;;;;;4981661;28;19910;-67
2021/04/30 12:12:15;;;;;;;9.13;5.72;;;12.60;64.50;;;;;;4969173;28;20030;-67
2021/04/30 12:15:03;;;;;;;8.07;5.70;;;12.30;65.60;;;;;;4983501;28;20397;-68
2021/04/30 12:17:40;;;;;;;7.38;5.63;;;12.50;65.20;;;;;;4978652;28;20096;-68
2021/04/30 12:20:18;;;;;;;9.18;5.90;;;12.60;65.50;;;;;;4988313;28;20479;-69
2021/04/30 12:22:55;;;;;;;7.22;5.70;;;12.70;66.10;;;;;;4983552;28;20033;-67
2021/04/30 12:25:27;;;;;;;8.88;6.00;;;12.80;65.30;;;;;;4981541;28;20496;-69
2021/04/30 12:27:53;;;;;;;8.52;5.93;;;12.70;65.80;;;;;;4986333;28;20498;-67
2021/04/30 12:30:26;;;;;;;8.18;6.15;;;12.60;63.90;;;;;;4968117;28;20067;-68
2021/04/30 12:32:52;;;;;;;8.20;5.68;;;12.50;64.80;;;;;;4987527;28;20122;-69
2021/04/30 12:35:17;;;;;;;9.82;6.38;;;12.50;67.00;;;;;;4983215;28;20121;-70
2021/04/30 12:37:43;;;;;;;8.55;6.00;;;12.40;65.90;;;;;;4984184;28;20026;-69
2021/04/30 12:40:09;;;;;;;8.05;6.07;;;12.40;66.00;;;;;;4985858;28;20134;-68
2021/04/30 12:42:49;;;;;;;7.65;5.95;;;12.20;65.70;;;;;;4986988;28;20053;-67
2021/04/30 12:45:16;;;;;;;7.95;6.05;;;12.10;66.20;;;;;;4985824;28;20118;-68